36NC weather

Greensboro North Airport
Greensboro, North Carolina, United States

Public forecast

Using degrees Fahrenheit for public forecast. Weather courtesy of forecast.io.

METAR (pilot weather report)

Closest report is Piedmont Triad International Airport, 9.5 nm (17.5 km) S. Retrieved 2019/07/18 01:54 UTC (8 minutes ago):

KGSO 180154Z 25007KT 10SM BKN150 BKN200 27/20 A3001 RMK AO2 SLP150 T02720200

TAF (pilot weather forecast)

Forecast is more than 12 hours old.

Closest forecast is Piedmont Triad International Airport, 9.5 nm (17.5 km) S. Retrieved 2019/07/17 00:36 UTC (1 day ago):

TAF KGSO 172334Z 1800/1824 24007KT P6SM BKN150 FM180500 22004KT P6SM SCT120 FM181800 25007KT P6SM VCTS SCT050CB BKN180 TEMPO 1819/1823 BKN050CB